Time;durP1;ratioP1;P1;durP2;ratioP2;P2;SDS_P1;SDS_P2;PMS_P1;PMS_P2;Temp;Humidity;BMP_temperature;BMP_pressure;BME280_temperature;BME280_humidity;BME280_pressure;Samples;Min_cycle;Max_cycle;Signal;HPM_P1;HPM_P2
2022/05/11 00:01:44;;;;;;;10.57;9.97;;;;;;;11.12;78.56;93117.53;5049220;28;20239;-81
2022/05/11 00:04:10;;;;;;;9.97;9.47;;;;;;;11.17;78.45;93131.34;5048627;28;20197;-78
2022/05/11 00:06:37;;;;;;;10.80;10.10;;;;;;;11.19;78.08;93134.47;5049419;28;20231;-79
2022/05/11 00:09:05;;;;;;;11.03;10.43;;;;;;;11.22;78.14;93133.16;5049598;28;20190;-78
2022/05/11 00:11:31;;;;;;;11.20;10.47;;;;;;;11.00;77.90;93104.00;5048806;28;20229;-78
2022/05/11 00:13:57;;;;;;;9.60;9.17;;;;;;;11.14;76.92;93131.13;5049683;28;20185;-78
2022/05/11 00:16:24;;;;;;;9.63;9.03;;;;;;;11.02;77.14;93139.25;5049258;28;20233;-78
2022/05/11 00:18:49;;;;;;;10.37;9.83;;;;;;;11.10;77.46;93145.75;5049835;28;20218;-78
2022/05/11 00:21:15;;;;;;;11.80;11.10;;;;;;;10.89;78.06;93112.94;5048976;28;20242;-78
2022/05/11 00:23:40;;;;;;;10.97;10.40;;;;;;;11.06;76.49;93135.06;5048262;28;20207;-78
2022/05/11 00:26:06;;;;;;;10.13;9.53;;;;;;;10.82;78.32;93118.44;5048939;28;20242;-78
2022/05/11 00:28:32;;;;;;;11.50;10.77;;;;;;;10.87;78.68;93126.25;5050475;28;20246;-77
2022/05/11 00:30:57;;;;;;;10.77;9.90;;;;;;;10.94;78.68;93136.44;5048378;28;20226;-78
2022/05/11 00:33:23;;;;;;;9.77;9.27;;;;;;;10.91;78.85;93124.66;5049247;28;20398;-79
2022/05/11 00:35:50;;;;;;;11.03;10.10;;;;;;;10.84;79.16;93120.78;5048838;28;20186;-78
2022/05/11 00:38:18;;;;;;;11.53;10.83;;;;;;;10.78;79.57;93114.03;5048408;28;20213;-78
2022/05/11 00:40:47;;;;;;;10.37;9.87;;;;;;;10.77;79.21;93108.00;5048172;28;20194;-78
2022/05/11 00:43:13;;;;;;;10.97;10.30;;;;;;;10.82;79.11;93113.22;5050077;28;20194;-78
2022/05/11 00:45:48;;;;;;;10.50;9.90;;;;;;;10.80;78.82;93104.84;5048576;28;20214;-78
2022/05/11 00:51:05;;;;;;;10.87;10.23;;;;;;;10.52;80.37;93108.06;5047858;28;20256;-78
2022/05/11 00:53:35;;;;;;;11.17;10.37;;;;;;;10.56;80.13;93105.72;5049649;28;20182;-79
2022/05/11 00:56:01;;;;;;;10.17;9.67;;;;;;;10.65;80.46;93109.34;5047900;28;20240;-78
2022/05/11 00:58:36;;;;;;;10.00;9.57;;;;;;;10.32;81.17;93092.47;5049367;28;21002;-78
2022/05/11 01:01:03;;;;;;;10.40;9.60;;;;;;;10.40;81.73;93094.53;5049017;28;20324;-77
2022/05/11 01:03:53;;;;;;;10.77;10.07;;;;;;;10.58;80.71;93108.88;5049318;28;20217;-78
2022/05/11 01:06:21;;;;;;;11.13;10.47;;;;;;;10.45;80.80;93091.13;5049093;28;20293;-77
2022/05/11 01:08:46;;;;;;;10.47;9.77;;;;;;;10.38;81.42;93114.91;5048511;28;20205;-78
2022/05/11 01:11:12;;;;;;;10.17;9.50;;;;;;;10.43;81.46;93124.56;5048215;28;20234;-78
2022/05/11 01:13:40;;;;;;;10.90;10.30;;;;;;;10.24;81.98;93108.66;5049456;28;20209;-78
2022/05/11 01:16:06;;;;;;;10.73;10.13;;;;;;;10.47;82.05;93129.00;5049685;28;20285;-78
2022/05/11 01:18:32;;;;;;;11.30;10.70;;;;;;;10.46;81.92;93130.03;5053293;28;20236;-78
2022/05/11 01:20:59;;;;;;;10.60;10.00;;;;;;;10.22;82.02;93112.59;5054230;28;20320;-78
2022/05/11 01:23:48;;;;;;;10.90;10.30;;;;;;;10.36;81.20;93118.84;5052398;28;20174;-77
2022/05/11 01:26:16;;;;;;;11.17;10.47;;;;;;;10.24;82.27;93132.16;5051750;28;20222;-77
2022/05/11 01:28:44;;;;;;;10.23;9.60;;;;;;;10.01;82.63;93124.84;5052702;28;20194;-77
2022/05/11 01:31:11;;;;;;;11.30;10.33;;;;;;;10.22;82.29;93118.59;5053311;28;20237;-77
2022/05/11 01:33:42;;;;;;;10.97;10.43;;;;;;;10.20;82.33;93123.28;5052613;28;20768;-78
2022/05/11 01:36:27;;;;;;;10.50;9.90;;;;;;;10.28;82.26;93122.75;5049361;28;20253;-78
2022/05/11 01:38:55;;;;;;;10.57;9.77;;;;;;;10.22;82.45;93117.81;5052027;28;20213;-78
2022/05/11 01:41:26;;;;;;;10.83;10.23;;;;;;;10.13;82.71;93114.97;5050820;28;20237;-78
2022/05/11 01:43:51;;;;;;;9.17;8.67;;;;;;;10.08;82.95;93111.56;5051721;28;20194;-78
2022/05/11 01:46:18;;;;;;;10.80;10.10;;;;;;;10.19;82.96;93100.88;5053456;28;20293;-78
2022/05/11 01:48:44;;;;;;;11.03;10.33;;;;;;;10.06;83.30;93103.97;5052286;28;20273;-78
2022/05/11 01:51:15;;;;;;;10.70;10.20;;;;;;;9.92;84.21;93092.50;5050858;28;20238;-79
2022/05/11 01:53:40;;;;;;;10.77;10.17;;;;;;;9.88;84.39;93096.69;5052109;28;20186;-78
2022/05/11 01:56:06;;;;;;;10.83;10.17;;;;;;;10.07;83.22;93110.78;5050502;28;20232;-77
2022/05/11 01:58:32;;;;;;;10.50;9.87;;;;;;;10.06;83.21;93111.00;5052819;28;20214;-77
2022/05/11 02:00:58;;;;;;;10.23;9.53;;;;;;;9.90;83.57;93118.06;5052073;28;20304;-78
2022/05/11 02:03:24;;;;;;;11.50;10.90;;;;;;;10.01;83.61;93124.06;5051646;28;20186;-78
2022/05/11 02:08:37;;;;;;;10.10;9.37;;;;;;;10.07;83.41;93121.22;5052847;28;20220;-77
2022/05/11 02:11:03;;;;;;;9.17;8.73;;;;;;;10.11;83.37;93118.88;5050930;28;20234;-77
2022/05/11 02:13:30;;;;;;;9.87;9.37;;;;;;;9.88;84.18;93116.78;5052262;28;20194;-78
2022/05/11 02:15:56;;;;;;;10.37;9.70;;;;;;;10.11;83.93;93111.03;5050317;28;20213;-78
2022/05/11 02:18:23;;;;;;;9.87;9.33;;;;;;;10.19;83.97;93113.91;5050612;28;20206;-78
2022/05/11 02:20:48;;;;;;;9.87;9.40;;;;;;;10.07;84.61;93102.94;5051832;28;20215;-78
2022/05/11 02:23:15;;;;;;;10.87;10.27;;;;;;;10.28;83.72;93106.31;5051121;28;21337;-78
2022/05/11 02:25:45;;;;;;;10.83;10.30;;;;;;;10.24;83.63;93111.28;5052552;28;20200;-78
2022/05/11 02:28:12;;;;;;;10.70;9.93;;;;;;;10.08;83.83;93085.47;5049377;28;20189;-78
2022/05/11 02:30:38;;;;;;;11.23;10.43;;;;;;;10.19;83.91;93110.50;5051159;28;20186;-77
2022/05/11 02:33:04;;;;;;;10.53;9.83;;;;;;;10.11;83.63;93090.97;5050899;28;20205;-77
2022/05/11 02:35:29;;;;;;;9.50;8.93;;;;;;;10.22;83.82;93108.16;5050473;28;20194;-78
2022/05/11 02:37:57;;;;;;;10.67;10.07;;;;;;;10.31;83.33;93108.41;5050349;28;20256;-77
2022/05/11 02:40:28;;;;;;;9.67;9.17;;;;;;;10.21;83.25;93096.16;5050288;28;20193;-78
2022/05/11 02:42:54;;;;;;;10.03;9.33;;;;;;;10.40;82.74;93105.00;5051090;28;20238;-78
2022/05/11 02:45:20;;;;;;;10.60;10.07;;;;;;;10.47;82.13;93102.91;5051891;28;20182;-78
2022/05/11 02:47:47;;;;;;;9.47;8.87;;;;;;;10.50;82.61;93110.19;5051293;28;20227;-78
2022/05/11 02:50:16;;;;;;;10.50;9.93;;;;;;;10.51;82.36;93122.19;5050509;28;20189;-78
2022/05/11 02:52:42;;;;;;;10.57;9.97;;;;;;;10.58;83.17;93117.50;5050166;28;20241;-78
2022/05/11 02:55:08;;;;;;;10.23;9.73;;;;;;;10.57;82.21;93115.91;5050613;28;20186;-77
2022/05/11 02:57:34;;;;;;;10.83;10.13;;;;;;;10.54;82.89;93111.22;5050394;28;20230;-78
2022/05/11 03:00:00;;;;;;;10.87;10.23;;;;;;;10.61;82.63;93118.78;5051013;28;20196;-78
2022/05/11 03:02:26;;;;;;;9.77;9.27;;;;;;;10.56;82.74;93124.78;5051007;28;20237;-78
2022/05/11 03:04:52;;;;;;;9.60;9.13;;;;;;;10.66;82.40;93127.34;5052098;28;20186;-77
2022/05/11 03:07:18;;;;;;;11.37;10.87;;;;;;;10.59;82.37;93113.03;5050105;28;20222;-78
2022/05/11 03:09:44;;;;;;;10.37;9.67;;;;;;;10.71;82.22;93121.34;5051418;28;20255;-77
2022/05/11 03:12:11;;;;;;;10.97;10.37;;;;;;;10.73;82.24;93120.03;5049600;28;20230;-78
2022/05/11 03:14:37;;;;;;;9.80;9.30;;;;;;;10.70;82.80;93127.63;5052906;28;20236;-78
2022/05/11 03:17:03;;;;;;;10.30;9.80;;;;;;;10.84;82.10;93133.84;5051908;28;20222;-77
2022/05/11 03:19:29;;;;;;;10.63;9.73;;;;;;;10.77;83.03;93141.94;5051271;28;20194;-78
2022/05/11 03:21:55;;;;;;;10.63;10.13;;;;;;;10.78;83.14;93138.31;5050016;28;20218;-78
2022/05/11 03:24:21;;;;;;;9.47;8.97;;;;;;;11.00;82.74;93146.56;5050549;28;20178;-78
2022/05/11 03:26:46;;;;;;;10.20;9.67;;;;;;;10.92;82.48;93134.09;5050645;28;20228;-78
2022/05/11 03:29:12;;;;;;;10.93;10.17;;;;;;;11.04;82.44;93136.38;5050840;28;20189;-78
2022/05/11 03:31:39;;;;;;;9.73;9.10;;;;;;;10.92;82.53;93113.19;5050110;28;20305;-78
2022/05/11 03:36:50;;;;;;;10.43;9.83;;;;;;;11.08;83.14;93132.19;5049530;28;20261;-78
2022/05/11 03:39:17;;;;;;;10.83;10.30;;;;;;;11.11;83.66;93142.09;5048880;28;20186;-77
2022/05/11 03:41:45;;;;;;;11.03;10.43;;;;;;;11.14;84.05;93136.34;5050618;28;20237;-78
2022/05/11 03:44:11;;;;;;;10.37;9.87;;;;;;;11.23;83.15;93138.13;5051240;28;20295;-78
2022/05/11 03:46:36;;;;;;;11.87;10.87;;;;;;;11.42;82.81;93134.88;5049517;28;20226;-78
2022/05/11 03:49:02;;;;;;;12.53;11.63;;;;;;;11.54;81.99;93141.34;5047819;28;20236;-75
2022/05/11 03:51:28;;;;;;;10.23;9.53;;;;;;;11.31;81.88;93106.16;5047878;28;20290;-81
2022/05/11 03:53:53;;;;;;;10.80;10.10;;;;;;;11.41;81.94;93133.31;5048811;28;20186;-79
2022/05/11 03:56:19;;;;;;;11.40;10.37;;;;;;;11.52;81.34;93140.06;5047989;28;20287;-79
2022/05/11 03:58:45;;;;;;;10.30;9.67;;;;;;;11.41;81.44;93121.03;5048025;28;20201;-79
2022/05/11 04:01:12;;;;;;;11.30;10.70;;;;;;;11.47;81.85;93135.63;5048823;28;20252;-78
2022/05/11 04:03:38;;;;;;;10.80;10.13;;;;;;;11.58;81.74;93152.06;5048234;28;20247;-75
2022/05/11 04:06:04;;;;;;;13.27;12.07;;;;;;;11.76;80.92;93159.28;5047954;28;20221;-80
2022/05/11 04:08:30;;;;;;;13.97;12.67;;;;;;;11.88;80.45;93157.88;5049270;28;20220;-89
2022/05/11 04:10:55;;;;;;;12.27;11.27;;;;;;;11.99;79.68;93162.00;5048291;28;20209;-80
2022/05/11 04:13:21;;;;;;;11.90;10.70;;;;;;;12.00;79.28;93160.16;5050175;28;20257;-91
2022/05/11 04:15:51;;;;;;;12.47;11.57;;;;;;;12.09;79.32;93164.56;5049092;28;20213;-86
2022/05/11 04:18:17;;;;;;;11.73;11.00;;;;;;;12.25;77.96;93150.25;5048530;28;20210;-79
2022/05/11 04:20:43;;;;;;;11.73;10.83;;;;;;;12.43;74.75;93178.41;5049170;28;20201;-79
2022/05/11 04:23:09;;;;;;;12.63;11.37;;;;;;;12.59;73.94;93173.81;5047122;28;20214;-78
2022/05/11 04:25:34;;;;;;;12.30;11.40;;;;;;;13.01;73.54;93176.56;5048225;28;20189;-79
2022/05/11 04:28:02;;;;;;;12.13;11.33;;;;;;;13.15;73.33;93171.41;5047864;28;20225;-78
2022/05/11 04:30:31;;;;;;;11.40;10.70;;;;;;;13.32;73.87;93188.25;5047261;28;20224;-76
2022/05/11 04:32:58;;;;;;;11.13;10.43;;;;;;;13.36;73.85;93197.13;5048052;28;20221;-78
2022/05/11 04:35:30;;;;;;;14.67;13.50;;;;;;;13.22;74.33;93185.75;5047975;28;20209;-78
2022/05/11 04:37:57;;;;;;;13.57;12.67;;;;;;;13.12;75.09;93198.94;5046772;28;20229;-79
2022/05/11 04:40:23;;;;;;;14.10;13.00;;;;;;;13.39;73.73;93209.66;5047522;28;20202;-79
2022/05/11 04:42:49;;;;;;;13.27;12.10;;;;;;;13.45;73.31;93197.28;5048863;28;20226;-83
2022/05/11 04:45:16;;;;;;;13.90;12.87;;;;;;;13.43;74.13;93209.88;5049212;28;20192;-78
2022/05/11 04:47:42;;;;;;;14.70;13.70;;;;;;;13.18;74.88;93200.47;5048982;28;20272;-78
2022/05/11 04:50:09;;;;;;;15.13;13.87;;;;;;;13.30;74.79;93206.09;5048180;28;20254;-76
2022/05/11 04:52:35;;;;;;;16.57;15.07;;;;;;;13.13;76.75;93211.00;5037651;28;20246;-75
2022/05/11 04:55:01;;;;;;;15.63;14.23;;;;;;;13.53;75.19;93200.03;5032680;28;20183;-76
2022/05/11 04:57:26;;;;;;;16.70;15.20;;;;;;;13.74;73.47;93200.56;5032899;28;20237;-76
2022/05/11 04:59:52;;;;;;;17.53;16.03;;;;;;;13.83;72.95;93204.91;5033093;28;20187;-74
2022/05/11 05:02:23;;;;;;;16.13;14.73;;;;;;;13.80;73.43;93194.19;5043458;28;20222;-75
2022/05/11 05:04:50;;;;;;;16.10;14.80;;;;;;;14.07;71.65;93210.84;5052144;28;20190;-77
2022/05/11 05:07:16;;;;;;;15.57;14.37;;;;;;;14.31;71.53;93206.34;5052048;28;20336;-77
2022/05/11 05:09:42;;;;;;;16.90;15.00;;;;;;;14.88;69.03;93214.88;5051052;28;20201;-77
2022/05/11 05:12:08;;;;;;;15.47;13.97;;;;;;;14.92;69.40;93219.25;5052191;28;20226;-77
2022/05/11 05:14:34;;;;;;;13.53;12.43;;;;;;;16.02;64.35;93213.69;5052996;28;20190;-77
2022/05/11 05:17:05;;;;;;;13.23;12.23;;;;;;;16.37;62.80;93231.38;5051565;28;20281;-77
2022/05/11 05:19:30;;;;;;;13.50;12.50;;;;;;;15.57;66.46;93217.28;5052773;28;20194;-80
2022/05/11 05:21:57;;;;;;;13.23;12.23;;;;;;;15.36;66.17;93221.34;5050313;28;21605;-78
2022/05/11 05:24:23;;;;;;;12.90;11.90;;;;;;;15.31;66.59;93198.56;5051167;28;20178;-80
2022/05/11 05:26:48;;;;;;;12.27;11.47;;;;;;;15.72;64.25;93224.88;5051298;28;20225;-78
2022/05/11 05:32:13;;;;;;;13.67;12.60;;;;;;;16.18;62.80;93238.63;5019092;28;20245;-80
2022/05/11 05:34:38;;;;;;;11.93;11.13;;;;;;;18.10;57.33;93225.53;5032584;28;20194;-79
2022/05/11 05:37:04;;;;;;;12.03;11.20;;;;;;;19.96;51.02;93243.28;5043226;28;20739;-80
2022/05/11 05:39:30;;;;;;;11.27;10.43;;;;;;;23.08;43.86;93251.09;5052351;28;20205;-77
2022/05/11 05:41:55;;;;;;;11.63;10.83;;;;;;;26.89;35.07;93261.28;5051651;28;20265;-81
2022/05/11 05:44:20;;;;;;;11.23;10.32;;;;;;;26.79;34.51;93263.81;5050939;28;20177;-82
2022/05/11 05:46:46;;;;;;;11.32;10.52;;;;;;;29.37;29.56;93274.59;5051975;28;20231;-80
2022/05/11 05:49:12;;;;;;;12.05;10.88;;;;;;;29.03;30.29;93276.72;5050694;28;20196;-81
2022/05/11 05:51:40;;;;;;;10.13;9.52;;;;;;;30.37;28.18;93285.22;5050177;28;20244;-81
2022/05/11 05:54:06;;;;;;;11.20;10.27;;;;;;;30.68;27.62;93279.78;5051230;28;20188;-81
2022/05/11 05:56:35;;;;;;;10.02;9.27;;;;;;;30.46;27.57;93288.31;5050790;28;20806;-80
2022/05/11 05:59:05;;;;;;;8.52;7.93;;;;;;;30.68;27.01;93289.81;5051469;28;20340;-81
2022/05/11 06:01:32;;;;;;;9.85;9.10;;;;;;;31.24;26.27;93297.81;5050552;28;20260;-81
2022/05/11 06:03:58;;;;;;;10.05;9.25;;;;;;;31.20;25.92;93307.84;5050159;28;20257;-81
2022/05/11 06:06:23;;;;;;;9.95;9.32;;;;;;;27.38;30.56;93293.31;5050439;28;20233;-80
2022/05/11 06:08:49;;;;;;;9.48;8.88;;;;;;;29.40;28.03;93287.28;5050894;28;20273;-81
2022/05/11 06:11:14;;;;;;;10.27;9.45;;;;;;;30.34;26.56;93300.22;5054440;28;20290;-81
2022/05/11 06:13:41;;;;;;;9.88;9.10;;;;;;;28.41;29.27;93293.19;5050537;28;20201;-81
2022/05/11 06:16:13;;;;;;;10.65;9.85;;;;;;;29.73;28.24;93297.03;5051233;28;20332;-82
2022/05/11 06:18:41;;;;;;;9.55;8.75;;;;;;;30.46;26.64;93296.38;5049928;28;20314;-80
2022/05/11 06:21:08;;;;;;;10.13;9.32;;;;;;;32.06;24.90;93307.91;5050041;28;20256;-81
2022/05/11 06:23:35;;;;;;;9.90;8.93;;;;;;;32.38;24.21;93299.59;5051241;28;20182;-81
2022/05/11 06:26:00;;;;;;;9.85;9.00;;;;;;;30.21;27.21;93306.38;5051270;28;20295;-81
2022/05/11 06:28:26;;;;;;;10.48;9.63;;;;;;;29.47;27.55;93306.91;5051623;28;20249;-81
2022/05/11 06:30:51;;;;;;;10.02;9.32;;;;;;;23.56;37.13;93284.78;5051003;28;20190;-80
2022/05/11 06:33:16;;;;;;;11.27;10.38;;;;;;;21.12;45.05;93274.19;5050552;28;20190;-80
2022/05/11 06:35:42;;;;;;;12.00;10.93;;;;;;;20.30;47.78;93281.00;5050222;28;20204;-79
2022/05/11 06:38:09;;;;;;;12.02;11.02;;;;;;;19.90;49.82;93286.97;5050153;28;20225;-80
2022/05/11 06:40:34;;;;;;;12.05;11.10;;;;;;;19.55;50.84;93275.72;5050974;28;20199;-80
2022/05/11 06:43:03;;;;;;;11.88;10.95;;;;;;;18.37;54.57;93277.34;5050915;28;20233;-80
2022/05/11 06:45:30;;;;;;;13.13;11.93;;;;;;;18.22;55.78;93275.94;5049547;28;20192;-80
2022/05/11 06:47:56;;;;;;;13.20;12.10;;;;;;;18.74;53.78;93284.72;5049685;28;20308;-79
2022/05/11 06:50:24;;;;;;;12.87;11.93;;;;;;;18.66;53.80;93282.88;5050865;28;20190;-80
2022/05/11 06:52:51;;;;;;;12.63;11.40;;;;;;;18.65;53.53;93284.72;5050097;28;20220;-80
2022/05/11 07:00:46;;;;;;;13.57;12.47;;;;;;;17.82;55.91;93277.06;5049660;28;20267;-80
2022/05/11 07:03:12;;;;;;;12.77;11.67;;;;;;;17.94;57.40;93287.84;5050103;28;20631;-79
2022/05/11 07:05:38;;;;;;;12.37;11.37;;;;;;;17.80;56.76;93273.97;5050101;28;20308;-79
2022/05/11 07:08:04;;;;;;;12.40;11.33;;;;;;;17.37;56.38;93289.59;5050815;28;20207;-79
2022/05/11 07:10:31;;;;;;;11.80;10.90;;;;;;;17.92;55.63;93286.56;5050821;28;20820;-79
2022/05/11 07:12:57;;;;;;;13.30;12.30;;;;;;;17.89;55.90;93281.91;5049584;28;20297;-80
2022/05/11 07:15:23;;;;;;;12.17;11.17;;;;;;;17.93;53.98;93283.63;5049289;28;20252;-79
2022/05/11 07:17:50;;;;;;;12.23;10.27;;;;;;;17.67;55.78;93281.97;5049193;28;20238;-79
2022/05/11 07:20:35;;;;;;;10.97;10.23;;;;;;;17.77;54.42;93289.66;5048125;28;20263;-80
2022/05/11 07:23:02;;;;;;;12.70;11.40;;;;;;;18.21;52.92;93270.97;5049210;28;20226;-79
2022/05/11 07:25:28;;;;;;;12.13;11.17;;;;;;;18.51;52.26;93272.72;5048999;28;20193;-79
2022/05/11 07:27:56;;;;;;;11.07;10.17;;;;;;;18.54;51.77;93269.47;5050036;28;20329;-79
2022/05/11 07:30:26;;;;;;;12.60;11.70;;;;;;;17.62;54.71;93276.84;5050835;28;20178;-79
2022/05/11 07:32:52;;;;;;;11.43;10.33;;;;;;;18.11;52.25;93277.31;5049073;28;20233;-79
2022/05/11 07:35:18;;;;;;;11.63;10.67;;;;;;;18.01;55.35;93263.63;5050373;28;20174;-80
2022/05/11 07:37:47;;;;;;;11.97;11.10;;;;;;;17.85;53.07;93259.84;5048908;28;20237;-79
2022/05/11 07:40:14;;;;;;;9.43;8.73;;;;;;;18.13;53.34;93271.72;5049674;28;20632;-79
2022/05/11 07:42:39;;;;;;;10.97;10.03;;;;;;;17.81;52.52;93264.16;5048902;28;20256;-80
2022/05/11 07:45:05;;;;;;;10.93;10.17;;;;;;;18.20;50.99;93264.09;5050396;28;20193;-79
2022/05/11 07:47:32;;;;;;;9.97;9.27;;;;;;;18.49;49.55;93262.47;5049589;28;20233;-80
2022/05/11 07:49:57;;;;;;;10.93;10.13;;;;;;;18.52;49.08;93258.44;5049681;28;20219;-79
2022/05/11 07:52:23;;;;;;;10.00;9.40;;;;;;;18.71;48.83;93261.53;5048833;28;20255;-79
2022/05/11 07:54:48;;;;;;;10.83;9.97;;;;;;;18.77;50.22;93249.72;5048805;28;20209;-79
2022/05/11 08:00:02;;;;;;;10.57;9.70;;;;;;;18.85;47.37;93251.53;5050571;28;20314;-79
2022/05/11 08:02:31;;;;;;;9.60;8.93;;;;;;;18.94;46.67;93244.41;5049241;28;20247;-80
2022/05/11 08:04:59;;;;;;;9.33;8.73;;;;;;;18.91;48.72;93255.63;5049634;28;20193;-80
2022/05/11 08:07:35;;;;;;;9.57;9.07;;;;;;;18.78;47.40;93256.56;5049083;28;20802;-79
2022/05/11 08:10:00;;;;;;;9.67;9.17;;;;;;;19.01;46.90;93263.22;5048554;28;20191;-80
2022/05/11 08:12:27;;;;;;;9.57;9.00;;;;;;;19.06;47.05;93257.75;5049720;28;20225;-79
2022/05/11 08:14:53;;;;;;;10.60;9.70;;;;;;;19.11;44.73;93244.38;5050516;28;20198;-80
2022/05/11 08:17:30;;;;;;;10.20;9.50;;;;;;;18.95;47.42;93253.88;5049012;28;20227;-79
2022/05/11 08:19:57;;;;;;;9.27;8.50;;;;;;;19.12;46.92;93251.19;5047938;28;20254;-79
2022/05/11 08:22:24;;;;;;;8.40;7.90;;;;;;;19.28;44.94;93249.66;5049078;28;20226;-79
2022/05/11 08:24:51;;;;;;;10.50;9.63;;;;;;;19.30;43.89;93258.03;5048595;28;20189;-80
2022/05/11 08:27:17;;;;;;;9.27;8.77;;;;;;;19.23;44.21;93251.63;5053332;28;20298;-80
2022/05/11 08:35:11;;;;;;;8.43;7.83;;;;;;;19.11;44.60;93239.06;5052474;28;20226;-78
2022/05/11 08:37:36;;;;;;;9.10;8.60;;;;;;;19.27;43.55;93226.88;5052547;28;20223;-79
2022/05/11 08:40:02;;;;;;;9.73;9.13;;;;;;;19.36;43.90;93245.41;5053543;28;20222;-80
2022/05/11 08:42:32;;;;;;;8.73;8.23;;;;;;;19.47;43.84;93231.50;5050038;28;20231;-80
2022/05/11 08:45:01;;;;;;;9.03;8.53;;;;;;;19.57;43.37;93236.44;5051855;28;20191;-80
2022/05/11 08:47:44;;;;;;;9.03;8.43;;;;;;;19.39;43.03;93252.72;5051690;28;20259;-79
2022/05/11 08:50:16;;;;;;;8.87;8.37;;;;;;;19.84;41.34;93249.28;5052359;28;20271;-80
2022/05/11 08:53:04;;;;;;;18.40;9.73;;;;;;;19.54;43.15;93246.91;5050434;28;20299;-79
2022/05/11 08:55:30;;;;;;;8.60;8.00;;;;;;;19.67;41.53;93236.13;5052930;28;20190;-79
2022/05/11 08:57:56;;;;;;;8.97;8.30;;;;;;;19.74;43.22;93241.69;5052725;28;20245;-80
2022/05/11 09:00:22;;;;;;;9.00;8.50;;;;;;;19.71;41.11;93250.25;5051395;28;20214;-79
2022/05/11 09:02:53;;;;;;;9.63;9.03;;;;;;;19.59;43.48;93244.88;5052941;28;20241;-81
2022/05/11 09:05:26;;;;;;;9.17;8.57;;;;;;;19.61;43.25;93242.66;5052460;28;20218;-79
2022/05/11 09:07:54;;;;;;;9.43;8.93;;;;;;;19.55;42.10;93243.94;5053281;28;20223;-79
2022/05/11 09:10:25;;;;;;;9.20;8.70;;;;;;;19.76;39.18;93242.16;5052489;28;20191;-78
2022/05/11 09:12:56;;;;;;;8.67;8.20;;;;;;;19.63;42.84;93240.47;5051079;28;20236;-80
2022/05/11 09:15:22;;;;;;;7.93;7.53;;;;;;;19.71;40.35;93234.38;5051567;28;20221;-79
2022/05/11 09:17:48;;;;;;;9.30;8.57;;;;;;;19.58;41.14;93226.66;5052871;28;20230;-79
2022/05/11 09:20:23;;;;;;;8.90;8.30;;;;;;;19.86;44.17;93241.75;5051497;28;20198;-79
2022/05/11 09:23:00;;;;;;;8.07;7.67;;;;;;;20.10;39.94;93238.53;5051347;28;20233;-79
2022/05/11 09:25:32;;;;;;;8.90;8.10;;;;;;;20.02;40.31;93248.09;5052076;28;20261;-80
2022/05/11 09:28:20;;;;;;;8.47;7.97;;;;;;;19.87;39.30;93246.00;5052050;28;20330;-79
2022/05/11 09:31:00;;;;;;;8.33;7.77;;;;;;;20.13;39.63;93233.38;5050446;28;20219;-78
2022/05/11 09:33:34;;;;;;;7.40;7.10;;;;;;;19.79;38.99;93244.16;5051840;28;20180;-80
2022/05/11 09:36:04;;;;;;;7.50;7.10;;;;;;;19.90;39.76;93245.34;5051154;28;20228;-80
2022/05/11 09:38:55;;;;;;;8.67;8.27;;;;;;;20.04;37.86;93245.09;5051905;28;20219;-79
2022/05/11 09:41:28;;;;;;;9.33;8.77;;;;;;;19.95;39.25;93223.97;5048682;28;20239;-79
2022/05/11 09:43:58;;;;;;;8.33;7.93;;;;;;;20.23;41.01;93237.53;5052223;28;20195;-80
2022/05/11 09:46:26;;;;;;;8.13;7.73;;;;;;;20.16;38.59;93242.56;5050974;28;20263;-79
2022/05/11 09:49:16;;;;;;;8.20;7.73;;;;;;;19.96;39.80;93237.97;5052805;28;20216;-79
2022/05/11 09:51:54;;;;;;;8.50;8.00;;;;;;;20.11;38.88;93240.84;5052423;28;20286;-79
2022/05/11 09:54:42;;;;;;;8.10;7.57;;;;;;;20.26;38.59;93231.59;5051449;28;20186;-79
2022/05/11 09:57:08;;;;;;;8.33;7.73;;;;;;;20.50;39.27;93232.50;5052654;28;20299;-80
2022/05/11 09:59:39;;;;;;;7.53;7.13;;;;;;;20.51;38.23;93231.41;5051589;28;20213;-80
2022/05/11 10:02:26;;;;;;;9.00;8.30;;;;;;;20.39;39.49;93233.19;5050793;28;20237;-80
2022/05/11 10:05:01;;;;;;;8.37;7.97;;;;;;;20.67;38.06;93229.72;5051892;28;20214;-80
2022/05/11 10:07:29;;;;;;;8.60;8.13;;;;;;;20.04;40.13;93224.69;5050494;28;20232;-80
2022/05/11 10:10:03;;;;;;;8.90;8.40;;;;;;;20.32;40.43;93209.09;5051299;28;20188;-78
2022/05/11 10:12:35;;;;;;;8.27;7.87;;;;;;;20.59;38.83;93219.94;5050091;28;20262;-79
2022/05/11 10:23:45;;;;;;;8.97;8.03;;;;;;;20.99;37.69;93206.97;5050989;28;20223;-79
2022/05/11 10:26:19;;;;;;;9.00;8.38;;;;;;;21.38;37.76;93193.13;5049568;28;20235;-79
2022/05/11 10:29:00;;;;;;;8.27;7.78;;;;;;;21.61;36.56;93214.72;5051224;28;20204;-77
2022/05/11 10:31:50;;;;;;;8.10;7.60;;;;;;;21.39;37.88;93213.25;5049561;28;20231;-79
2022/05/11 10:34:20;;;;;;;8.50;8.00;;;;;;;21.94;36.33;93202.13;5050029;28;20201;-78
2022/05/11 10:36:51;;;;;;;8.02;7.47;;;;;;;21.81;38.31;93205.88;5049954;28;20260;-78
2022/05/11 10:39:39;;;;;;;13.25;8.05;;;;;;;22.09;35.75;93202.22;5050727;28;20180;-77
2022/05/11 10:42:20;;;;;;;7.28;6.72;;;;;;;21.70;36.64;93210.06;5050297;28;20258;-78
2022/05/11 10:45:01;;;;;;;8.18;7.78;;;;;;;21.73;39.45;93207.53;5051399;28;20184;-78
2022/05/11 10:47:44;;;;;;;7.47;7.18;;;;;;;22.06;37.64;93207.44;5049850;28;20237;-74
2022/05/11 10:50:28;;;;;;;7.82;7.50;;;;;;;22.04;35.14;93205.09;5049234;28;20192;-74
2022/05/11 10:52:53;;;;;;;7.45;6.95;;;;;;;21.88;33.73;93211.44;5048260;28;20322;-74
2022/05/11 10:55:25;;;;;;;8.23;7.72;;;;;;;22.27;34.03;93205.41;5051524;28;20646;-75
2022/05/11 10:58:27;;;;;;;7.78;7.30;;;;;;;22.10;33.66;93203.00;5048652;28;20247;-74
2022/05/11 11:01:15;;;;;;;7.95;7.55;;;;;;;22.57;34.28;93196.03;5048935;28;20205;-74
2022/05/11 11:04:05;;;;;;;7.72;7.32;;;;;;;22.48;34.69;93198.03;5065300;28;20272;-73
2022/05/11 11:09:48;;;;;;;8.10;7.70;;;;;;;22.58;33.40;93202.94;5049373;28;20214;-74
2022/05/11 11:12:31;;;;;;;7.97;7.55;;;;;;;22.12;35.20;93200.78;5050619;28;20270;-74
2022/05/11 11:15:00;;;;;;;7.97;7.38;;;;;;;21.79;34.73;93202.81;5050151;28;20197;-74
2022/05/11 11:17:27;;;;;;;8.27;7.88;;;;;;;21.72;37.31;93199.88;5049230;28;20238;-74
2022/05/11 11:19:58;;;;;;;8.23;7.72;;;;;;;21.93;35.65;93214.63;5050400;28;20203;-74
2022/05/11 11:22:23;;;;;;;8.85;8.32;;;;;;;21.87;35.48;93194.72;5048551;28;20265;-75
2022/05/11 11:25:12;;;;;;;8.07;7.68;;;;;;;22.08;38.83;93226.50;5050031;28;20186;-74
2022/05/11 11:28:00;;;;;;;8.65;8.18;;;;;;;21.93;40.42;93224.53;5049769;28;20353;-74
2022/05/11 11:30:26;;;;;;;7.88;7.40;;;;;;;21.09;39.65;93225.13;5049254;28;20205;-74
2022/05/11 11:33:13;;;;;;;9.00;8.50;;;;;;;21.16;39.67;93229.91;5051508;28;20220;-74
2022/05/11 11:35:57;;;;;;;8.18;7.72;;;;;;;20.86;39.63;93223.16;5049552;28;20211;-74
2022/05/11 11:38:32;;;;;;;8.40;7.90;;;;;;;20.60;40.06;93221.50;5049156;28;20240;-74
2022/05/11 11:41:19;;;;;;;8.05;7.65;;;;;;;20.33;42.57;93232.63;5050189;28;20339;-74
2022/05/11 11:44:26;;;;;;;8.43;7.80;;;;;;;20.14;41.63;93240.22;5049539;28;20212;-73
2022/05/11 11:46:52;;;;;;;6.87;6.57;;;;;;;19.95;41.17;93242.53;5049666;28;20228;-74
2022/05/11 11:49:18;;;;;;;7.40;7.07;;;;;;;20.19;40.85;93248.00;5049703;28;20188;-74
2022/05/11 11:52:02;;;;;;;7.30;7.00;;;;;;;20.13;41.13;93253.78;5050116;28;20235;-74
2022/05/11 11:54:37;;;;;;;7.53;7.03;;;;;;;20.13;41.42;93249.28;5049954;28;20193;-74
2022/05/11 11:57:25;;;;;;;7.97;7.57;;;;;;;20.36;39.93;93241.81;5049628;28;20265;-74
2022/05/11 11:59:52;;;;;;;8.17;7.77;;;;;;;20.98;39.59;93233.84;5049744;28;20188;-74
2022/05/11 12:02:42;;;;;;;7.80;7.40;;;;;;;21.10;39.77;93253.25;5048114;28;20260;-74
2022/05/11 12:05:13;;;;;;;7.63;7.13;;;;;;;21.36;37.27;93255.63;5049883;28;20190;-74
2022/05/11 12:16:47;;;;;;;8.00;7.50;;;;;;;20.95;38.06;93240.53;5049257;28;20256;-75
2022/05/11 12:19:14;;;;;;;8.38;7.95;;;;;;;20.83;38.63;93234.41;5049438;28;20209;-74
2022/05/11 12:21:52;;;;;;;7.55;7.18;;;;;;;21.64;36.91;93237.97;5049038;28;20259;-74